Time;durP1;ratioP1;P1;durP2;ratioP2;P2;SDS_P1;SDS_P2;PMS_P1;PMS_P2;Temp;Humidity;BMP_temperature;BMP_pressure;BME280_temperature;BME280_humidity;BME280_pressure;Samples;Min_cycle;Max_cycle;Signal;HPM_P1;HPM_P2
2021/04/12 00:01:16;;;;;;;4.40;4.00;;;10.00;68.20;;;;;;5184060;28;20037;-63
2021/04/12 00:03:56;;;;;;;5.10;4.60;;;9.80;68.10;;;;;;5189422;28;20110;-66
2021/04/12 00:06:34;;;;;;;5.30;4.30;;;9.80;68.60;;;;;;5188299;28;20057;-64
2021/04/12 00:09:16;;;;;;;5.32;4.70;;;9.80;68.70;;;;;;5189275;28;20576;-64
2021/04/12 00:11:54;;;;;;;5.20;4.70;;;9.80;68.60;;;;;;5192325;28;20614;-65
2021/04/12 00:15:09;;;;;;;4.70;4.30;;;9.80;68.70;;;;;;5188829;28;20087;-63
2021/04/12 00:17:44;;;;;;;4.72;4.32;;;9.80;68.40;;;;;;5194724;28;20041;-63
2021/04/12 00:20:22;;;;;;;4.93;4.50;;;9.80;69.10;;;;;;5186017;28;20355;-65
2021/04/12 00:23:00;;;;;;;4.88;4.47;;;9.70;68.90;;;;;;5195054;28;20044;-63
2021/04/12 00:25:40;;;;;;;4.80;4.35;;;9.70;69.10;;;;;;5189051;28;20570;-65
2021/04/12 00:28:35;;;;;;;4.90;4.40;;;9.80;69.20;;;;;;5186843;28;20042;-63
2021/04/12 00:31:37;;;;;;;4.53;4.13;;;9.70;69.70;;;;;;5188640;28;20623;-62
2021/04/12 00:34:54;;;;;;;4.60;4.20;;;9.60;69.80;;;;;;5183258;28;20076;-63
2021/04/12 00:37:48;;;;;;;4.53;4.05;;;9.70;69.30;;;;;;5187042;28;20034;-63
2021/04/12 00:40:41;;;;;;;4.75;4.35;;;9.80;69.10;;;;;;5189971;28;20137;-63
2021/04/12 00:43:27;;;;;;;4.68;4.28;;;9.80;68.40;;;;;;5193546;28;20432;-63
2021/04/12 00:46:06;;;;;;;4.60;4.20;;;10.00;68.30;;;;;;5189292;28;20037;-63
2021/04/12 00:49:09;;;;;;;4.45;4.05;;;9.90;68.70;;;;;;5191317;28;20041;-63
2021/04/12 00:52:31;;;;;;;4.90;4.40;;;9.80;68.40;;;;;;5185879;28;20033;-62
2021/04/12 00:55:27;;;;;;;4.20;3.80;;;9.90;68.40;;;;;;5154252;28;20649;-66
2021/04/12 00:58:12;;;;;;;4.20;3.80;;;9.80;69.00;;;;;;5186271;28;20049;-64
2021/04/12 01:01:20;;;;;;;4.78;4.32;;;9.70;69.40;;;;;;5171250;28;20143;-62
2021/04/12 01:04:23;;;;;;;5.55;4.15;;;9.70;69.60;;;;;;5187535;28;20048;-63
2021/04/12 01:07:04;;;;;;;4.70;4.30;;;9.60;70.50;;;;;;5185926;28;20051;-65
2021/04/12 01:09:54;;;;;;;4.28;3.88;;;9.60;71.40;;;;;;5182227;28;20053;-63
2021/04/12 01:12:28;;;;;;;5.07;4.57;;;9.40;72.10;;;;;;5186501;28;20184;-62
2021/04/12 01:15:31;;;;;;;4.82;4.32;;;9.40;72.50;;;;;;5185853;28;20069;-63
2021/04/12 01:18:06;;;;;;;4.80;4.40;;;9.30;73.00;;;;;;5150966;28;20512;-66
2021/04/12 01:21:07;;;;;;;4.40;3.88;;;9.30;73.20;;;;;;5163053;28;20526;-63
2021/04/12 01:24:16;;;;;;;8.80;4.03;;;9.20;73.30;;;;;;5166406;28;20057;-63
2021/04/12 01:27:00;;;;;;;4.43;4.03;;;9.20;74.00;;;;;;5184180;28;20053;-65
2021/04/12 01:30:02;;;;;;;6.18;3.90;;;9.00;75.70;;;;;;5187104;28;20041;-65
2021/04/12 01:33:02;;;;;;;4.50;4.10;;;8.90;75.50;;;;;;5188277;28;20041;-65
2021/04/12 01:35:53;;;;;;;;;;;8.90;76.20;;;;;;5186701;28;20411;-65
2021/04/12 01:38:38;;;;;;;4.30;3.90;;;8.90;76.10;;;;;;5186443;28;20019;-63
2021/04/12 01:41:17;;;;;;;4.35;3.95;;;8.90;76.60;;;;;;5185760;28;20506;-62
2021/04/12 01:43:55;;;;;;;4.50;4.10;;;8.90;76.60;;;;;;5185439;28;20048;-65
2021/04/12 01:46:41;;;;;;;4.40;4.00;;;9.00;75.50;;;;;;5187860;28;20044;-63
2021/04/12 01:49:18;;;;;;;4.40;4.00;;;9.20;76.30;;;;;;5190794;28;20158;-63
2021/04/12 01:51:58;;;;;;;4.45;4.05;;;9.20;75.70;;;;;;5186189;28;20046;-64
2021/04/12 01:54:34;;;;;;;4.43;4.03;;;9.20;75.50;;;;;;5185705;28;20484;-63
2021/04/12 01:57:43;;;;;;;4.60;4.10;;;9.20;75.20;;;;;;5184183;28;20053;-64
2021/04/12 02:00:33;;;;;;;5.90;4.20;;;9.20;76.40;;;;;;5181272;28;20156;-63
2021/04/12 02:03:13;;;;;;;4.47;4.07;;;9.20;77.00;;;;;;5188388;28;20136;-65
2021/04/12 02:06:09;;;;;;;4.35;3.95;;;9.10;76.80;;;;;;5184228;28;20045;-63
2021/04/12 02:09:02;;;;;;;4.18;3.78;;;9.10;76.60;;;;;;5190030;28;20045;-63
2021/04/12 02:11:33;;;;;;;4.22;3.83;;;9.00;75.50;;;;;;5185802;28;20143;-66
2021/04/12 02:14:39;;;;;;;4.10;3.70;;;8.90;75.80;;;;;;5186515;28;20092;-65
2021/04/12 02:17:23;;;;;;;4.43;4.03;;;9.00;75.40;;;;;;5189877;28;20565;-64
2021/04/12 02:20:07;;;;;;;4.57;4.10;;;9.00;74.90;;;;;;5188838;28;20061;-64
2021/04/12 02:23:14;;;;;;;5.00;4.03;;;9.10;76.30;;;;;;5188239;28;20402;-63
2021/04/12 02:26:15;;;;;;;4.20;3.80;;;9.00;77.00;;;;;;5186967;28;20037;-63
2021/04/12 02:29:21;;;;;;;5.28;4.10;;;9.00;77.20;;;;;;5184086;28;20144;-64
2021/04/12 02:32:20;;;;;;;4.50;4.10;;;9.10;77.80;;;;;;5180557;28;20112;-63
2021/04/12 02:35:17;;;;;;;4.50;4.10;;;9.10;77.10;;;;;;5164832;28;20474;-63
2021/04/12 02:38:00;;;;;;;4.45;4.05;;;9.00;77.10;;;;;;5181198;28;20050;-66
2021/04/12 02:41:11;;;;;;;5.72;3.80;;;9.10;75.10;;;;;;5184076;28;20066;-65
2021/04/12 02:44:10;;;;;;;4.43;4.03;;;9.10;75.60;;;;;;5187454;28;20141;-63
2021/04/12 02:47:11;;;;;;;5.65;4.05;;;9.00;75.70;;;;;;5184302;28;20520;-64
2021/04/12 02:50:21;;;;;;;4.57;3.83;;;8.80;77.40;;;;;;5182399;28;20601;-62
2021/04/12 02:52:52;;;;;;;4.32;3.92;;;8.90;77.00;;;;;;5106142;28;20054;-63
2021/04/12 02:55:43;;;;;;;4.20;3.80;;;8.90;76.90;;;;;;5168702;28;20403;-63
2021/04/12 02:58:33;;;;;;;4.40;4.00;;;8.80;77.20;;;;;;5186629;28;20048;-63
2021/04/12 03:01:42;;;;;;;3.90;3.50;;;8.90;77.30;;;;;;5184751;28;20061;-66
2021/04/12 03:04:28;;;;;;;4.32;3.92;;;8.80;77.70;;;;;;5188909;28;20095;-63
2021/04/12 03:07:12;;;;;;;6.40;4.35;;;8.80;76.30;;;;;;5185809;28;20061;-62
2021/04/12 03:09:46;;;;;;;4.20;3.80;;;8.90;75.80;;;;;;5188081;28;20046;-62
2021/04/12 03:12:51;;;;;;;4.18;3.78;;;8.90;75.60;;;;;;5186277;28;20477;-66
2021/04/12 03:15:50;;;;;;;4.10;3.70;;;8.90;75.70;;;;;;5186208;28;20049;-63
2021/04/12 03:18:22;;;;;;;4.40;4.00;;;9.00;75.60;;;;;;5186803;28;20117;-63
2021/04/12 03:21:12;;;;;;;4.93;4.20;;;9.00;75.10;;;;;;5184419;28;20830;-63
2021/04/12 03:24:17;;;;;;;4.63;4.22;;;9.00;76.00;;;;;;5182189;28;20527;-63
2021/04/12 03:27:23;;;;;;;4.40;4.00;;;9.00;75.90;;;;;;5185928;28;20439;-66
2021/04/12 03:30:21;;;;;;;4.40;3.90;;;9.00;75.80;;;;;;5184115;28;20116;-63
2021/04/12 03:33:08;;;;;;;5.63;4.40;;;9.00;74.80;;;;;;5176767;28;20037;-63
2021/04/12 03:35:47;;;;;;;4.30;3.90;;;8.90;76.30;;;;;;5173731;28;20038;-62
2021/04/12 03:38:46;;;;;;;4.07;3.67;;;8.90;75.00;;;;;;5163466;28;20097;-64
2021/04/12 03:41:36;;;;;;;4.53;3.95;;;8.80;76.10;;;;;;5172287;28;20807;-66
2021/04/12 03:44:32;;;;;;;4.63;4.20;;;8.60;75.40;;;;;;5184420;28;20046;-63
2021/04/12 03:47:49;;;;;;;4.75;4.10;;;8.50;77.20;;;;;;5186104;28;20593;-66
2021/04/12 03:50:41;;;;;;;4.70;4.20;;;8.30;78.80;;;;;;5156452;28;20734;-64
2021/04/12 03:54:06;;;;;;;5.30;4.20;;;8.20;79.00;;;;;;5186381;28;20037;-63
2021/04/12 03:57:01;;;;;;;4.90;4.50;;;8.20;78.90;;;;;;5129380;28;20122;-65
2021/04/12 03:59:51;;;;;;;4.68;4.10;;;8.30;78.60;;;;;;5189543;28;20061;-65
2021/04/12 04:02:23;;;;;;;;;;;8.40;77.30;;;;;;5184141;28;20034;-62
2021/04/12 04:05:18;;;;;;;4.70;4.30;;;8.50;77.20;;;;;;5187435;28;20012;-62
2021/04/12 04:08:04;;;;;;;5.25;4.75;;;8.40;77.30;;;;;;5165306;28;20046;-66
2021/04/12 04:10:55;;;;;;;4.60;4.20;;;8.30;76.20;;;;;;5168541;28;20049;-64
2021/04/12 04:13:42;;;;;;;4.50;4.10;;;8.10;74.20;;;;;;5169798;28;20127;-65
2021/04/12 04:16:51;;;;;;;4.85;4.38;;;8.00;73.30;;;;;;5178670;28;20050;-62
2021/04/12 04:19:46;;;;;;;4.57;4.18;;;7.90;73.00;;;;;;5189293;28;20116;-62
2021/04/12 04:23:02;;;;;;;4.75;4.35;;;7.80;75.00;;;;;;5191711;28;20067;-66
2021/04/12 04:25:51;;;;;;;4.47;4.07;;;7.80;76.40;;;;;;5166311;28;20121;-65
2021/04/12 04:29:02;;;;;;;4.80;3.80;;;7.90;74.10;;;;;;5186789;28;20117;-64
2021/04/12 04:32:04;;;;;;;4.78;4.10;;;7.80;71.20;;;;;;5191730;28;20046;-65
2021/04/12 04:34:51;;;;;;;4.40;3.95;;;7.60;71.90;;;;;;5188509;28;20088;-63
2021/04/12 04:38:01;;;;;;;5.47;4.82;;;7.60;71.20;;;;;;5190502;28;20045;-63
2021/04/12 04:40:58;;;;;;;5.25;4.75;;;7.60;70.90;;;;;;5186520;28;20551;-62
2021/04/12 04:43:51;;;;;;;4.28;3.88;;;7.50;70.90;;;;;;5189891;28;20120;-62
2021/04/12 04:46:49;;;;;;;4.40;4.00;;;7.40;70.30;;;;;;5188568;28;20088;-63
2021/04/12 04:49:39;;;;;;;4.35;3.95;;;7.30;70.10;;;;;;5187239;28;20041;-64
2021/04/12 04:52:36;;;;;;;4.40;4.00;;;7.30;70.20;;;;;;5189148;28;20660;-63
2021/04/12 04:55:26;;;;;;;4.40;4.00;;;7.10;70.20;;;;;;5205618;28;20111;-63
2021/04/12 04:58:16;;;;;;;4.57;4.18;;;7.00;70.30;;;;;;5196606;28;20126;-62
2021/04/12 05:00:56;;;;;;;4.18;3.78;;;6.90;69.90;;;;;;5185435;28;20045;-65
2021/04/12 05:03:55;;;;;;;4.28;3.88;;;6.70;69.90;;;;;;5189438;28;20038;-64
2021/04/12 05:06:48;;;;;;;3.90;3.50;;;6.60;70.30;;;;;;5189132;28;20122;-62
2021/04/12 05:09:27;;;;;;;4.15;3.75;;;6.40;70.20;;;;;;5187491;28;20053;-64
2021/04/12 05:12:40;;;;;;;3.30;3.00;;;6.30;71.20;;;;;;5186612;28;20411;-62
2021/04/12 05:15:48;;;;;;;3.50;3.20;;;6.20;71.20;;;;;;5095644;29;20684;-62
2021/04/12 05:18:57;;;;;;;4.03;3.63;;;6.10;71.40;;;;;;5187527;28;20096;-65
2021/04/12 05:21:49;;;;;;;4.47;3.60;;;5.90;72.70;;;;;;5185343;28;20038;-62
2021/04/12 05:24:47;;;;;;;4.03;3.63;;;5.70;73.10;;;;;;5185885;28;20049;-62
2021/04/12 05:27:27;;;;;;;3.72;3.42;;;5.60;72.50;;;;;;5195321;28;20041;-65
2021/04/12 05:30:28;;;;;;;4.63;4.00;;;5.40;72.60;;;;;;5187530;28;20115;-64
2021/04/12 05:33:18;;;;;;;4.07;3.67;;;5.30;74.00;;;;;;5188573;28;20045;-63
2021/04/12 05:36:11;;;;;;;4.07;3.60;;;5.30;73.70;;;;;;5187494;28;20091;-65
2021/04/12 05:39:12;;;;;;;3.40;3.10;;;5.20;73.60;;;;;;5201989;28;20041;-63
2021/04/12 05:42:05;;;;;;;3.60;3.30;;;5.10;73.90;;;;;;5156237;28;20106;-64
2021/04/12 05:44:36;;;;;;;3.58;3.28;;;5.10;73.80;;;;;;5166835;28;20513;-63
2021/04/12 05:47:25;;;;;;;3.78;3.38;;;5.00;73.70;;;;;;5168077;28;20064;-63
2021/04/12 05:50:26;;;;;;;3.92;3.50;;;4.80;73.80;;;;;;5166772;28;20137;-62
2021/04/12 05:53:11;;;;;;;4.47;3.38;;;4.70;74.20;;;;;;5189206;28;20119;-63
2021/04/12 05:56:01;;;;;;;3.55;3.25;;;4.60;73.70;;;;;;5188141;28;20047;-62
2021/04/12 05:58:47;;;;;;;3.50;3.20;;;4.60;73.70;;;;;;5189287;28;20084;-65
2021/04/12 06:01:40;;;;;;;3.65;3.35;;;4.60;72.40;;;;;;5188277;28;20037;-66
2021/04/12 06:04:26;;;;;;;3.83;3.42;;;4.50;72.80;;;;;;5187310;28;20037;-62
2021/04/12 06:07:18;;;;;;;3.58;3.28;;;4.30;73.30;;;;;;5185357;28;20457;-63
2021/04/12 06:10:27;;;;;;;4.40;3.00;;;4.20;73.00;;;;;;5191081;28;20515;-63
2021/04/12 06:13:25;;;;;;;3.53;3.00;;;4.20;73.20;;;;;;5170825;28;20411;-64
2021/04/12 06:16:16;;;;;;;3.30;3.00;;;4.30;73.40;;;;;;5168394;28;20074;-62
2021/04/12 06:19:06;;;;;;;3.60;3.00;;;4.30;73.30;;;;;;5169989;28;20629;-64
2021/04/12 06:21:56;;;;;;;3.13;2.83;;;4.30;73.60;;;;;;5168717;28;20046;-62
2021/04/12 06:24:54;;;;;;;3.80;3.03;;;4.20;73.60;;;;;;5183378;28;20049;-63
2021/04/12 06:28:06;;;;;;;3.17;2.63;;;4.20;73.70;;;;;;5188483;28;20144;-63
2021/04/12 06:30:38;;;;;;;2.75;2.55;;;4.00;73.20;;;;;;5194965;28;20049;-62
2021/04/12 06:33:35;;;;;;;2.65;2.45;;;4.00;73.30;;;;;;5187255;28;20046;-62
2021/04/12 06:36:56;;;;;;;3.15;2.83;;;4.00;72.50;;;;;;5185837;28;20042;-62
2021/04/12 06:40:21;;;;;;;3.28;2.80;;;4.10;73.20;;;;;;5144304;28;20423;-65
2021/04/12 06:43:11;;;;;;;3.13;2.63;;;4.10;72.70;;;;;;5119201;28;20050;-62
2021/04/12 06:45:54;;;;;;;3.45;2.80;;;4.20;72.50;;;;;;5186154;28;20522;-63
2021/04/12 06:49:01;;;;;;;3.13;2.70;;;4.20;72.90;;;;;;5189964;28;20506;-63
2021/04/12 06:51:41;;;;;;;2.75;2.30;;;4.20;73.40;;;;;;5183214;28;20089;-65
2021/04/12 06:54:32;;;;;;;2.88;2.50;;;4.10;73.00;;;;;;5188668;28;20076;-62
2021/04/12 06:57:04;;;;;;;3.03;2.63;;;4.10;72.80;;;;;;5187333;28;20041;-64
2021/04/12 06:59:50;;;;;;;2.70;2.35;;;4.10;72.50;;;;;;5188538;28;20052;-62
2021/04/12 07:02:49;;;;;;;2.90;2.60;;;4.20;72.20;;;;;;5184835;28;20088;-62
2021/04/12 07:05:56;;;;;;;3.13;2.60;;;4.10;72.70;;;;;;5194386;28;20546;-63
2021/04/12 07:09:01;;;;;;;5.10;3.40;;;4.00;73.20;;;;;;5202136;28;20042;-62
2021/04/12 07:12:19;;;;;;;2.70;2.40;;;4.00;73.70;;;;;;5185279;28;20133;-64
2021/04/12 07:15:36;;;;;;;5.95;3.67;;;4.00;72.40;;;;;;5175635;28;20471;-63
2021/04/12 07:18:32;;;;;;;6.10;3.85;;;4.10;72.60;;;;;;5190218;28;20196;-62
2021/04/12 07:21:31;;;;;;;3.38;2.80;;;4.10;73.00;;;;;;5187822;28;20046;-65
2021/04/12 07:24:40;;;;;;;3.60;3.00;;;4.10;73.30;;;;;;5187899;28;20683;-64
2021/04/12 07:27:49;;;;;;;2.90;2.60;;;4.00;73.90;;;;;;5186453;28;20836;-62
2021/04/12 07:30:48;;;;;;;2.53;2.33;;;3.90;73.50;;;;;;5186778;28;20044;-63
2021/04/12 07:33:55;;;;;;;2.88;2.53;;;3.90;72.50;;;;;;5168699;28;20058;-65
2021/04/12 07:36:45;;;;;;;3.35;2.90;;;3.90;73.20;;;;;;5134437;28;20047;-62
2021/04/12 07:39:55;;;;;;;3.67;3.10;;;3.90;72.80;;;;;;5166912;28;20124;-65
2021/04/12 07:42:54;;;;;;;3.72;2.95;;;3.90;72.40;;;;;;5185651;28;20042;-64
2021/04/12 07:45:56;;;;;;;3.00;2.70;;;3.80;73.30;;;;;;5191090;28;20042;-62
2021/04/12 07:48:46;;;;;;;2.65;2.40;;;3.80;73.10;;;;;;5192358;28;20038;-62
2021/04/12 07:51:24;;;;;;;3.08;2.75;;;3.80;73.10;;;;;;5193517;28;20436;-65
2021/04/12 07:54:18;;;;;;;3.35;3.05;;;3.90;73.00;;;;;;5193524;28;20096;-62
2021/04/12 07:57:17;;;;;;;4.03;3.00;;;3.90;73.00;;;;;;5188685;28;20065;-64
2021/04/12 08:00:10;;;;;;;3.80;2.80;;;4.00;73.10;;;;;;5190840;28;20130;-66
2021/04/12 08:03:15;;;;;;;3.50;2.90;;;4.00;73.10;;;;;;5190227;28;20065;-62
2021/04/12 08:05:53;;;;;;;4.28;3.25;;;4.10;73.30;;;;;;5189319;28;20135;-65
2021/04/12 08:08:46;;;;;;;3.88;2.95;;;4.00;73.50;;;;;;5186652;28;20045;-63
2021/04/12 08:11:52;;;;;;;6.00;2.75;;;4.00;73.10;;;;;;5174651;28;20061;-63
2021/04/12 08:14:51;;;;;;;4.88;3.10;;;4.10;73.20;;;;;;5171203;28;20450;-62
2021/04/12 08:17:37;;;;;;;4.78;3.30;;;4.10;72.80;;;;;;5169095;28;20041;-62
2021/04/12 08:20:43;;;;;;;4.30;2.90;;;4.00;72.70;;;;;;5169047;28;20778;-63
2021/04/12 08:23:45;;;;;;;4.43;2.83;;;3.90;72.50;;;;;;5190469;28;20049;-63
2021/04/12 08:26:43;;;;;;;3.40;2.80;;;3.80;72.70;;;;;;5191653;28;20128;-62
2021/04/12 08:29:38;;;;;;;4.32;2.88;;;3.80;72.80;;;;;;5189449;28;20046;-63
2021/04/12 08:32:38;;;;;;;4.47;3.60;;;3.80;73.10;;;;;;5190366;28;20045;-63
2021/04/12 08:35:28;;;;;;;5.50;3.55;;;3.80;73.20;;;;;;5197904;28;20049;-62
2021/04/12 08:38:28;;;;;;;4.32;3.00;;;3.90;73.10;;;;;;5190993;28;20053;-62
2021/04/12 08:41:39;;;;;;;4.50;3.50;;;3.90;72.30;;;;;;5190698;28;20046;-62
2021/04/12 08:45:04;;;;;;;4.75;3.50;;;4.00;72.40;;;;;;5191925;28;20046;-62
2021/04/12 08:47:53;;;;;;;4.85;3.60;;;4.00;72.50;;;;;;5188373;28;20072;-62
2021/04/12 08:50:35;;;;;;;5.40;3.50;;;4.00;72.40;;;;;;5192770;28;20037;-62
2021/04/12 08:53:15;;;;;;;5.25;3.15;;;4.10;71.80;;;;;;5191441;28;20151;-62
2021/04/12 08:56:20;;;;;;;5.65;3.55;;;4.20;72.60;;;;;;5187050;28;20042;-63
2021/04/12 08:59:17;;;;;;;4.22;3.30;;;4.30;71.90;;;;;;5186240;28;20041;-63
2021/04/12 09:02:28;;;;;;;4.40;3.33;;;4.50;71.90;;;;;;5189120;28;20056;-63
2021/04/12 09:05:36;;;;;;;4.90;3.75;;;4.60;71.70;;;;;;5188296;28;20037;-62
2021/04/12 09:08:42;;;;;;;4.95;3.50;;;4.70;71.10;;;;;;5169063;28;20072;-63
2021/04/12 09:11:37;;;;;;;5.88;3.72;;;4.70;70.70;;;;;;5167825;28;20128;-62
2021/04/12 09:14:57;;;;;;;5.05;3.80;;;4.80;70.80;;;;;;5159406;28;20142;-62
2021/04/12 09:17:54;;;;;;;;;;;4.80;70.40;;;;;;5188877;28;20050;-62
2021/04/12 09:20:34;;;;;;;6.93;4.40;;;4.90;70.10;;;;;;5187272;28;19925;-62
2021/04/12 09:23:43;;;;;;;8.48;4.88;;;5.00;69.40;;;;;;5190298;28;20099;-64
2021/04/12 09:26:38;;;;;;;7.50;5.25;;;5.00;70.10;;;;;;5190551;28;20431;-64
2021/04/12 09:29:14;;;;;;;7.28;5.30;;;5.00;70.00;;;;;;5187304;28;20034;-62
2021/04/12 09:31:49;;;;;;;8.27;4.43;;;5.00;69.60;;;;;;5185863;28;20045;-62
2021/04/12 09:34:58;;;;;;;5.47;4.30;;;5.00;69.20;;;;;;5188801;28;20427;-63
2021/04/12 09:38:07;;;;;;;4.90;3.63;;;5.00;69.40;;;;;;5186045;28;20069;-62
2021/04/12 09:41:08;;;;;;;4.82;3.53;;;4.80;70.30;;;;;;5182897;28;20042;-62
2021/04/12 09:44:01;;;;;;;4.65;3.53;;;4.90;69.70;;;;;;5190257;28;20064;-62
2021/04/12 09:47:11;;;;;;;5.40;3.95;;;4.90;69.60;;;;;;5185812;28;20045;-62
2021/04/12 09:50:19;;;;;;;5.00;3.65;;;5.00;70.20;;;;;;5184566;28;20502;-62
2021/04/12 09:53:02;;;;;;;4.72;3.78;;;5.20;69.10;;;;;;5187929;28;20041;-62
2021/04/12 09:56:04;;;;;;;5.40;4.25;;;5.10;70.10;;;;;;5191380;28;20058;-62
2021/04/12 09:59:08;;;;;;;5.20;4.05;;;5.30;69.60;;;;;;5196617;28;20053;-62
2021/04/12 10:01:48;;;;;;;5.40;4.20;;;5.40;66.90;;;;;;5184393;28;20547;-64
2021/04/12 10:04:43;;;;;;;5.75;4.47;;;5.50;68.40;;;;;;5189648;28;20112;-63
2021/04/12 10:07:34;;;;;;;7.22;5.53;;;5.60;65.40;;;;;;5170138;28;20039;-63
2021/04/12 10:10:20;;;;;;;5.45;4.10;;;5.60;66.70;;;;;;5167167;28;20112;-62
2021/04/12 10:13:06;;;;;;;5.47;4.45;;;5.80;66.10;;;;;;5168815;28;20038;-62
2021/04/12 10:15:56;;;;;;;6.15;4.07;;;5.60;66.30;;;;;;5169296;28;20050;-63
2021/04/12 10:18:46;;;;;;;6.30;4.67;;;5.60;64.90;;;;;;5168507;28;20580;-63
2021/04/12 10:21:34;;;;;;;5.45;4.28;;;5.60;65.50;;;;;;5178957;28;20045;-64
2021/04/12 10:24:23;;;;;;;6.28;4.47;;;5.60;63.80;;;;;;5189449;28;20523;-62
2021/04/12 10:26:57;;;;;;;6.00;4.43;;;5.60;65.70;;;;;;5186786;28;20135;-63
2021/04/12 10:29:46;;;;;;;5.30;4.40;;;5.50;65.70;;;;;;5187299;28;20132;-62
2021/04/12 10:32:23;;;;;;;5.75;4.47;;;5.40;66.10;;;;;;5187902;28;20045;-64
2021/04/12 10:35:00;;;;;;;12.23;7.05;;;5.40;66.30;;;;;;5185342;28;20176;-62
2021/04/12 10:37:43;;;;;;;15.80;9.57;;;5.40;68.00;;;;;;5185641;28;20419;-63
2021/04/12 10:40:40;;;;;;;7.35;5.05;;;5.40;67.80;;;;;;5188270;28;20105;-62
2021/04/12 10:43:35;;;;;;;6.03;4.70;;;5.50;67.50;;;;;;5194538;28;20411;-62
2021/04/12 10:46:16;;;;;;;6.43;5.28;;;5.60;66.80;;;;;;5186463;28;20519;-62
2021/04/12 10:48:50;;;;;;;6.10;5.00;;;5.50;67.60;;;;;;5189977;28;20045;-64
2021/04/12 10:51:46;;;;;;;5.78;4.47;;;5.50;67.00;;;;;;5186774;28;20049;-62
2021/04/12 10:54:33;;;;;;;6.03;4.50;;;5.50;68.20;;;;;;5189200;28;20096;-65
2021/04/12 10:57:28;;;;;;;6.40;4.30;;;5.50;67.80;;;;;;5186789;28;20050;-64
2021/04/12 11:00:15;;;;;;;6.22;4.65;;;5.50;68.40;;;;;;5184329;28;20050;-64
2021/04/12 11:03:20;;;;;;;5.50;4.38;;;5.50;67.10;;;;;;5187246;28;20084;-63
2021/04/12 11:06:37;;;;;;;5.72;4.57;;;5.40;67.20;;;;;;5186459;28;20575;-62
2021/04/12 11:09:21;;;;;;;5.25;4.43;;;5.20;67.60;;;;;;5186477;28;20041;-62
2021/04/12 11:12:20;;;;;;;5.50;4.38;;;5.10;66.80;;;;;;5182421;28;20538;-63
2021/04/12 11:15:16;;;;;;;5.90;5.05;;;5.00;67.00;;;;;;5186158;28;20550;-62
2021/04/12 11:18:21;;;;;;;5.35;4.40;;;5.00;67.30;;;;;;5185574;28;20057;-64
2021/04/12 11:21:02;;;;;;;5.00;3.92;;;5.00;68.10;;;;;;5190796;28;20128;-62
2021/04/12 11:23:50;;;;;;;5.32;4.47;;;5.00;67.40;;;;;;5195503;28;20450;-64
2021/04/12 11:27:09;;;;;;;5.82;4.57;;;5.10;67.20;;;;;;5194743;28;20037;-62
2021/04/12 11:29:44;;;;;;;5.60;4.57;;;5.00;67.60;;;;;;5201889;28;20048;-64
2021/04/12 11:32:31;;;;;;;6.18;4.50;;;5.00;68.20;;;;;;5175264;28;20769;-64
2021/04/12 11:35:09;;;;;;;5.72;4.40;;;4.90;68.60;;;;;;5188377;28;20041;-66
2021/04/12 11:38:05;;;;;;;5.03;3.65;;;4.90;69.90;;;;;;5193634;28;20038;-64
2021/04/12 11:41:03;;;;;;;4.95;3.80;;;4.80;69.30;;;;;;5193673;28;20049;-61
2021/04/12 11:43:37;;;;;;;4.90;4.00;;;4.60;69.20;;;;;;5192147;28;20775;-65
2021/04/12 11:46:38;;;;;;;5.15;4.30;;;4.50;69.00;;;;;;5191693;28;20041;-61
2021/04/12 11:49:37;;;;;;;5.40;4.32;;;4.50;69.00;;;;;;5194323;28;20041;-62
2021/04/12 11:52:21;;;;;;;6.55;4.30;;;4.40;69.80;;;;;;5190484;28;20364;-65
2021/04/12 11:55:29;;;;;;;6.35;4.65;;;4.20;70.40;;;;;;5192436;28;20045;-63
2021/04/12 11:58:13;;;;;;;5.80;4.68;;;4.10;70.80;;;;;;5175041;28;20578;-63
2021/04/12 12:01:03;;;;;;;6.18;4.60;;;4.10;71.30;;;;;;5175797;28;20066;-63
2021/04/12 12:03:38;;;;;;;5.50;4.38;;;4.00;70.60;;;;;;5174562;28;20050;-63
2021/04/12 12:06:26;;;;;;;5.55;4.30;;;4.00;71.00;;;;;;5184405;28;20041;-62
2021/04/12 12:09:35;;;;;;;6.05;4.25;;;3.90;71.10;;;;;;5194139;28;20534;-62
2021/04/12 12:12:42;;;;;;;5.63;4.25;;;4.00;70.70;;;;;;5194181;28;20104;-62
2021/04/12 12:15:39;;;;;;;6.90;4.60;;;3.90;70.60;;;;;;5196061;28;20045;-62
2021/04/12 12:18:26;;;;;;;6.78;4.70;;;3.80;71.80;;;;;;5193618;28;20466;-63
2021/04/12 12:21:34;;;;;;;6.60;4.90;;;3.90;71.50;;;;;;5189875;28;20594;-64
2021/04/12 12:24:50;;;;;;;6.32;4.57;;;3.90;71.30;;;;;;5171937;28;20054;-63
2021/04/12 12:27:57;;;;;;;6.57;4.68;;;3.80;70.80;;;;;;5191131;28;20049;-63
2021/04/12 12:30:33;;;;;;;7.68;6.03;;;3.80;71.10;;;;;;5178287;28;20038;-62
2021/04/12 12:33:15;;;;;;;6.35;4.47;;;3.80;71.30;;;;;;5191436;28;20049;-64
2021/04/12 12:36:25;;;;;;;7.20;5.18;;;3.90;71.50;;;;;;5190953;28;20984;-64
2021/04/12 12:39:08;;;;;;;7.95;5.10;;;3.90;71.00;;;;;;5187130;28;20069;-62
2021/04/12 12:41:45;;;;;;;7.00;5.10;;;4.00;70.80;;;;;;5195267;28;20041;-61
2021/04/12 12:44:25;;;;;;;6.30;4.15;;;4.00;70.90;;;;;;5188567;28;20042;-63
2021/04/12 12:47:04;;;;;;;6.10;4.40;;;3.90;69.90;;;;;;5186204;28;20034;-61
2021/04/12 12:49:43;;;;;;;6.57;4.65;;;3.80;71.10;;;;;;5192369;28;20296;-61
2021/04/12 12:52:32;;;;;;;6.72;4.60;;;3.80;70.70;;;;;;5190185;28;20049;-62
2021/04/12 12:55:15;;;;;;;6.33;4.80;;;3.80;70.40;;;;;;5188514;28;20073;-64
2021/04/12 12:57:49;;;;;;;5.88;4.40;;;3.80;69.90;;;;;;5191823;28;20052;-63
2021/04/12 13:00:33;;;;;;;6.28;4.63;;;3.80;70.50;;;;;;5186787;28;20061;-63
2021/04/12 13:03:26;;;;;;;6.97;5.00;;;3.80;70.80;;;;;;5189542;28;20042;-64
2021/04/12 13:06:11;;;;;;;6.97;4.70;;;3.80;71.70;;;;;;5189636;28;20053;-62
2021/04/12 13:09:14;;;;;;;7.13;5.07;;;3.80;71.80;;;;;;5190045;28;20048;-61
2021/04/12 13:11:50;;;;;;;6.70;5.13;;;3.80;71.40;;;;;;5182355;28;20045;-63
2021/04/12 13:14:27;;;;;;;6.80;4.70;;;3.90;71.60;;;;;;5191577;28;20127;-62
2021/04/12 13:17:01;;;;;;;7.20;5.13;;;3.90;71.20;;;;;;5185532;28;20041;-61
2021/04/12 13:19:45;;;;;;;6.90;5.38;;;3.80;72.10;;;;;;5189390;28;20108;-64
2021/04/12 13:22:42;;;;;;;5.85;4.43;;;3.80;71.00;;;;;;5184444;28;20038;-64
2021/04/12 13:25:18;;;;;;;6.22;4.70;;;3.80;70.80;;;;;;5189555;28;20474;-62
2021/04/12 13:27:56;;;;;;;7.25;4.57;;;3.80;70.80;;;;;;5196276;28;20056;-63
2021/04/12 13:30:31;;;;;;;7.55;5.22;;;3.90;71.60;;;;;;5189958;28;20096;-62
2021/04/12 13:33:25;;;;;;;6.95;4.70;;;3.80;71.00;;;;;;5188181;28;20459;-65
2021/04/12 13:36:16;;;;;;;6.68;5.13;;;3.80;71.40;;;;;;5184892;28;20038;-62
2021/04/12 13:38:50;;;;;;;6.22;4.82;;;3.80;71.50;;;;;;5187504;28;20140;-64
2021/04/12 13:41:26;;;;;;;7.40;4.90;;;3.80;71.20;;;;;;5190402;28;20037;-61
2021/04/12 13:44:09;;;;;;;6.35;4.57;;;3.80;71.10;;;;;;5186383;28;20042;-61
2021/04/12 13:47:03;;;;;;;6.88;4.40;;;3.70;71.60;;;;;;5188038;28;20654;-62
2021/04/12 13:49:39;;;;;;;5.88;4.43;;;3.70;71.60;;;;;;5145321;28;20046;-63
2021/04/12 13:52:19;;;;;;;6.78;4.68;;;3.60;72.00;;;;;;5189278;28;20057;-61
2021/04/12 13:55:00;;;;;;;7.15;5.25;;;3.60;71.70;;;;;;5188443;28;20050;-62
2021/04/12 13:57:42;;;;;;;6.85;4.57;;;3.50;72.50;;;;;;5189523;28;20054;-64
2021/04/12 14:00:19;;;;;;;6.78;4.88;;;3.50;72.10;;;;;;5188087;28;20173;-62
2021/04/12 14:03:08;;;;;;;5.40;4.18;;;3.50;72.90;;;;;;5189764;28;20048;-62
2021/04/12 14:05:42;;;;;;;6.10;4.50;;;3.50;72.00;;;;;;5204168;28;20041;-61
2021/04/12 14:08:22;;;;;;;6.15;4.50;;;3.50;72.40;;;;;;5189475;28;20065;-62
2021/04/12 14:11:05;;;;;;;6.30;4.40;;;3.50;72.50;;;;;;5189468;28;20034;-62
2021/04/12 14:13:44;;;;;;;6.05;4.30;;;3.40;72.90;;;;;;5187877;28;20919;-62
2021/04/12 14:16:26;;;;;;;5.75;4.47;;;3.40;72.30;;;;;;5189910;28;20069;-63
2021/04/12 14:19:05;;;;;;;6.00;4.45;;;3.50;72.50;;;;;;5191248;28;20043;-62
2021/04/12 14:21:41;;;;;;;6.55;4.15;;;3.50;72.00;;;;;;5184482;28;20097;-61
2021/04/12 14:24:22;;;;;;;5.78;3.65;;;3.40;72.60;;;;;;5189670;28;20050;-61
2021/04/12 14:26:59;;;;;;;;;;;3.40;73.10;;;;;;5184296;28;20058;-61
2021/04/12 14:29:38;;;;;;;6.93;4.30;;;3.40;72.80;;;;;;5184973;28;19921;-63
2021/04/12 14:32:14;;;;;;;8.07;5.55;;;3.50;72.30;;;;;;5185636;28;20154;-62
2021/04/12 14:34:57;;;;;;;5.78;4.43;;;3.40;72.30;;;;;;5184724;28;20068;-63
2021/04/12 14:37:31;;;;;;;5.65;4.25;;;3.40;72.60;;;;;;5187949;28;20585;-62
2021/04/12 14:40:13;;;;;;;6.05;4.05;;;3.40;73.30;;;;;;5187634;28;20052;-64
2021/04/12 14:43:15;;;;;;;5.60;4.40;;;3.30;72.60;;;;;;5166569;28;20058;-63
2021/04/12 14:45:49;;;;;;;6.13;4.28;;;3.30;72.80;;;;;;5164480;28;20472;-63
2021/04/12 14:48:27;;;;;;;6.50;5.00;;;3.20;73.30;;;;;;5166084;28;20119;-63
2021/04/12 14:51:07;;;;;;;7.40;4.57;;;3.20;73.10;;;;;;5188690;28;20045;-62
2021/04/12 14:53:44;;;;;;;5.20;3.92;;;3.10;73.10;;;;;;5182196;28;20049;-61
2021/04/12 14:56:29;;;;;;;5.70;3.97;;;3.00;72.60;;;;;;5185735;28;20041;-63
2021/04/12 14:59:02;;;;;;;5.85;4.00;;;3.00;72.90;;;;;;5186887;28;20540;-61
2021/04/12 15:01:47;;;;;;;5.95;4.10;;;3.00;73.70;;;;;;5186751;28;20037;-64
2021/04/12 15:04:25;;;;;;;6.07;4.43;;;3.00;73.10;;;;;;5189304;28;20034;-63
2021/04/12 15:07:11;;;;;;;6.55;4.07;;;2.90;73.60;;;;;;5187126;28;20038;-61